Time;durP1;ratioP1;P1;durP2;ratioP2;P2;SDS_P1;SDS_P2;PMS_P1;PMS_P2;Temp;Humidity;BMP_temperature;BMP_pressure;BME280_temperature;BME280_humidity;BME280_pressure;Samples;Min_cycle;Max_cycle;Signal;HPM_P1;HPM_P2
2022/03/29 00:02:14;;;;;;;26.02;14.85;;;;;;;8.01;59.12;100750.94;5087008;28;20116;-22
2022/03/29 00:04:40;;;;;;;26.75;13.80;;;;;;;7.99;59.00;100754.41;5090701;28;20359;-22
2022/03/29 00:07:05;;;;;;;24.42;14.30;;;;;;;7.96;58.96;100756.19;5085446;28;20031;-22
2022/03/29 00:09:31;;;;;;;27.75;15.82;;;;;;;7.92;59.20;100751.78;5093852;28;20027;-23
2022/03/29 00:11:56;;;;;;;28.35;16.23;;;;;;;7.89;59.19;100741.28;5085515;28;20033;-22
2022/03/29 00:14:22;;;;;;;27.48;15.68;;;;;;;7.87;59.51;100744.78;5085452;28;20052;-22
2022/03/29 00:16:47;;;;;;;26.20;15.65;;;;;;;7.82;59.22;100750.88;5089723;28;20031;-22
2022/03/29 00:19:13;;;;;;;31.27;15.52;;;;;;;7.79;59.82;100743.00;5071183;28;20019;-22
2022/03/29 00:21:39;;;;;;;26.52;14.60;;;;;;;7.77;60.18;100744.72;5089970;28;20020;-21
2022/03/29 00:24:05;;;;;;;29.35;16.48;;;;;;;7.74;60.39;100735.97;5077564;28;20431;-22
2022/03/29 00:26:31;;;;;;;34.90;17.80;;;;;;;7.72;60.55;100730.72;5078686;28;20020;-22
2022/03/29 00:28:56;;;;;;;27.40;16.52;;;;;;;7.69;60.70;100728.06;5091700;28;20514;-22
2022/03/29 00:31:22;;;;;;;29.05;16.45;;;;;;;7.69;60.40;100730.69;5090140;28;20028;-21
2022/03/29 00:33:48;;;;;;;33.17;17.58;;;;;;;7.68;60.66;100734.19;5089666;28;20039;-22
2022/03/29 00:36:14;;;;;;;28.95;15.98;;;;;;;7.65;60.52;100729.81;5100765;28;20028;-22
2022/03/29 00:38:39;;;;;;;31.08;17.33;;;;;;;7.61;60.82;100727.16;5095045;28;20011;-22
2022/03/29 00:41:05;;;;;;;33.50;16.90;;;;;;;7.60;61.29;100730.66;5093609;28;20019;-23
2022/03/29 00:43:30;;;;;;;28.88;18.33;;;;;;;7.61;61.25;100738.56;5090600;28;20477;-21
2022/03/29 00:45:56;;;;;;;29.67;16.83;;;;;;;7.58;61.70;100728.91;5087891;28;20077;-22
2022/03/29 00:48:22;;;;;;;29.70;19.10;;;;;;;7.61;61.54;100719.28;5086380;28;20039;-22
2022/03/29 00:50:47;;;;;;;29.75;17.63;;;;;;;7.57;62.00;100715.78;5086802;28;20032;-22
2022/03/29 00:53:13;;;;;;;32.20;18.50;;;;;;;7.60;61.95;100709.69;5091352;28;20066;-21
2022/03/29 00:55:39;;;;;;;34.53;19.67;;;;;;;7.60;62.24;100707.06;5079193;28;20370;-21
2022/03/29 00:58:06;;;;;;;37.28;20.23;;;;;;;7.59;62.43;100714.03;5072624;28;20451;-22
2022/03/29 01:00:33;;;;;;;29.77;18.70;;;;;;;7.58;62.52;100709.66;5089836;28;21623;-23
2022/03/29 01:03:02;;;;;;;31.73;19.58;;;;;;;7.58;62.03;100702.66;5102207;28;20490;-22
2022/03/29 01:05:27;;;;;;;27.80;18.42;;;;;;;7.57;63.01;100694.78;5089410;28;20050;-21
2022/03/29 01:07:55;;;;;;;37.42;21.45;;;;;;;7.59;62.37;100695.66;5090035;28;20482;-23
2022/03/29 01:10:20;;;;;;;31.45;18.48;;;;;;;7.60;62.74;100691.31;5094940;28;20070;-22
2022/03/29 01:12:46;;;;;;;30.52;19.20;;;;;;;7.58;62.77;100697.41;5094019;28;20020;-22
2022/03/29 01:15:13;;;;;;;31.52;19.08;;;;;;;7.58;63.31;100694.78;5099721;28;20456;-22
2022/03/29 01:17:41;;;;;;;30.30;19.90;;;;;;;7.59;63.08;100693.03;5103899;28;20051;-22
2022/03/29 01:20:25;;;;;;;32.55;21.40;;;;;;;7.59;63.25;100698.28;5094042;28;20066;-23
2022/03/29 01:22:51;;;;;;;32.45;20.05;;;;;;;7.58;63.69;100686.91;5096435;28;20035;-22
2022/03/29 01:25:19;;;;;;;31.52;20.92;;;;;;;7.58;63.82;100686.03;5094515;28;20119;-22
2022/03/29 01:27:46;;;;;;;30.10;19.42;;;;;;;7.58;64.07;100680.78;5096042;28;20439;-23
2022/03/29 01:30:13;;;;;;;33.28;20.83;;;;;;;7.58;63.21;100681.66;5091075;28;20124;-22
2022/03/29 01:32:48;;;;;;;32.97;20.33;;;;;;;7.57;63.49;100679.03;5095438;28;20723;-22
2022/03/29 01:35:14;;;;;;;30.92;20.40;;;;;;;7.57;63.78;100674.66;5087620;28;20485;-23
2022/03/29 01:37:39;;;;;;;28.95;18.90;;;;;;;7.58;63.61;100670.28;5058681;28;20027;-22
2022/03/29 01:40:09;;;;;;;27.05;18.92;;;;;;;7.57;63.42;100669.41;5092235;28;20024;-22
2022/03/29 01:42:34;;;;;;;25.13;17.90;;;;;;;7.57;63.53;100668.53;5090369;28;20059;-22
2022/03/29 01:45:00;;;;;;;24.60;16.55;;;;;;;7.56;63.27;100665.03;5094875;28;20081;-22
2022/03/29 01:47:26;;;;;;;26.05;16.67;;;;;;;7.54;63.41;100668.53;5073570;28;20086;-22
2022/03/29 01:49:51;;;;;;;27.23;17.33;;;;;;;7.55;62.83;100670.28;5076313;28;20401;-22
2022/03/29 01:52:17;;;;;;;25.85;16.33;;;;;;;7.54;62.81;100661.50;5080250;28;20028;-22
2022/03/29 01:54:43;;;;;;;25.95;16.80;;;;;;;7.53;63.32;100662.41;5096314;28;20016;-22
2022/03/29 01:57:09;;;;;;;23.35;15.60;;;;;;;7.50;62.51;100657.13;5084426;28;20024;-22
2022/03/29 02:02:19;;;;;;;35.72;17.63;;;;;;;7.51;61.90;100660.63;5078500;28;20105;-22
2022/03/29 02:04:44;;;;;;;27.35;15.95;;;;;;;7.49;62.25;100655.38;5087662;28;20036;-22
2022/03/29 02:07:09;;;;;;;22.92;14.82;;;;;;;7.49;62.35;100659.75;5089849;28;20049;-22
2022/03/29 02:09:35;;;;;;;24.40;15.77;;;;;;;7.46;61.74;100658.00;5074510;28;20020;-23
2022/03/29 02:12:02;;;;;;;23.52;16.00;;;;;;;7.44;62.12;100646.63;5090828;28;20031;-22
2022/03/29 02:14:27;;;;;;;22.17;15.00;;;;;;;7.43;61.86;100650.09;5090764;28;20020;-22
2022/03/29 02:16:52;;;;;;;21.30;14.60;;;;;;;7.41;61.54;100641.38;5091083;28;20034;-22
2022/03/29 02:19:18;;;;;;;21.17;14.88;;;;;;;7.40;61.66;100640.47;5069389;28;20409;-22
2022/03/29 02:21:43;;;;;;;22.45;14.30;;;;;;;7.37;61.56;100635.22;5086724;28;20074;-21
2022/03/29 02:24:09;;;;;;;23.17;15.30;;;;;;;7.35;61.44;100631.72;5093541;28;20081;-22
2022/03/29 02:26:34;;;;;;;24.58;14.93;;;;;;;7.36;61.32;100638.72;5097816;28;20034;-22
2022/03/29 02:29:00;;;;;;;21.40;13.75;;;;;;;7.34;61.61;100634.34;5079898;28;20053;-22
2022/03/29 02:31:25;;;;;;;23.63;14.85;;;;;;;7.31;61.36;100630.81;5077233;28;20028;-23
2022/03/29 02:33:50;;;;;;;19.60;14.23;;;;;;;7.29;61.25;100627.34;5091666;28;20027;-22
2022/03/29 02:36:16;;;;;;;20.67;14.13;;;;;;;7.29;61.74;100626.44;5090668;28;20420;-22
2022/03/29 02:38:42;;;;;;;24.70;14.55;;;;;;;7.26;61.42;100622.06;5092773;28;20032;-22
2022/03/29 02:41:08;;;;;;;23.38;14.73;;;;;;;7.22;61.98;100625.56;5071599;28;20024;-21
2022/03/29 02:43:33;;;;;;;20.23;13.75;;;;;;;7.20;61.07;100611.53;5089085;28;20024;-22
2022/03/29 02:45:59;;;;;;;21.95;14.48;;;;;;;7.19;61.30;100618.56;5092782;28;20127;-23
2022/03/29 02:48:24;;;;;;;23.10;14.25;;;;;;;7.17;61.41;100619.41;5093358;28;20501;-22
2022/03/29 02:50:50;;;;;;;20.55;14.18;;;;;;;7.16;61.70;100626.41;5077262;28;20059;-22
2022/03/29 02:53:15;;;;;;;22.08;14.90;;;;;;;7.13;61.37;100620.25;5099090;28;20024;-23
2022/03/29 02:55:41;;;;;;;21.60;14.60;;;;;;;7.13;61.32;100628.13;5094749;28;20035;-22
2022/03/29 02:58:07;;;;;;;21.08;14.07;;;;;;;7.10;61.63;100617.63;5093978;28;20024;-22
2022/03/29 03:00:33;;;;;;;21.00;14.20;;;;;;;7.08;61.37;100607.13;5096532;28;20073;-22
2022/03/29 03:02:59;;;;;;;20.80;14.02;;;;;;;7.06;61.54;100609.75;5092867;28;20039;-23
2022/03/29 03:05:25;;;;;;;21.17;13.50;;;;;;;7.04;61.54;100610.63;5099231;28;20081;-22
2022/03/29 03:07:51;;;;;;;22.60;15.75;;;;;;;7.03;61.92;100609.72;5075354;28;20040;-23
2022/03/29 03:10:17;;;;;;;22.38;15.00;;;;;;;7.00;61.50;100604.47;5095251;28;20451;-22
2022/03/29 03:12:44;;;;;;;25.45;14.63;;;;;;;7.00;61.72;100608.84;5091259;28;20024;-22
2022/03/29 03:15:11;;;;;;;23.45;14.90;;;;;;;6.99;61.74;100602.72;5091423;28;20028;-22
2022/03/29 03:17:37;;;;;;;24.08;15.13;;;;;;;6.97;61.49;100599.19;5071321;28;20555;-21
2022/03/29 03:20:04;;;;;;;22.13;15.77;;;;;;;6.96;61.91;100601.81;5099734;28;20027;-22
2022/03/29 03:22:30;;;;;;;23.40;15.73;;;;;;;6.94;61.87;100601.84;5077735;28;20034;-22
2022/03/29 03:24:56;;;;;;;20.40;14.07;;;;;;;6.93;62.01;100600.06;5091868;28;20036;-22
2022/03/29 03:27:22;;;;;;;32.65;16.80;;;;;;;6.92;61.89;100598.31;5096101;28;20518;-22
2022/03/29 03:29:47;;;;;;;24.13;15.55;;;;;;;6.91;62.03;100600.03;5094445;28;20020;-22
2022/03/29 03:32:14;;;;;;;25.83;16.02;;;;;;;6.90;61.66;100602.66;5074388;28;20020;-22
2022/03/29 03:34:40;;;;;;;27.00;16.30;;;;;;;6.88;62.21;100600.06;5091610;28;20036;-22
2022/03/29 03:37:06;;;;;;;22.48;15.82;;;;;;;6.86;61.61;100595.66;5090248;28;20024;-23
2022/03/29 03:39:33;;;;;;;25.13;16.55;;;;;;;6.85;61.91;100599.16;5091816;28;20020;-22
2022/03/29 03:41:59;;;;;;;25.02;17.05;;;;;;;6.84;61.99;100603.53;5089802;28;20024;-21
2022/03/29 03:44:24;;;;;;;28.15;17.75;;;;;;;6.81;62.00;100595.66;5087768;28;20043;-21
2022/03/29 03:46:50;;;;;;;29.67;19.00;;;;;;;6.79;62.08;100597.38;5088304;28;20024;-22
2022/03/29 03:49:15;;;;;;;29.10;17.75;;;;;;;6.79;62.66;100594.75;5096608;28;20028;-22
2022/03/29 03:51:41;;;;;;;29.42;17.95;;;;;;;6.77;61.81;100597.38;5096787;28;20027;-22
2022/03/29 03:54:07;;;;;;;32.47;19.13;;;;;;;6.75;62.11;100588.63;5074808;28;20030;-22
2022/03/29 03:56:32;;;;;;;30.80;17.83;;;;;;;6.74;62.44;100591.25;5098483;28;20424;-22
2022/03/29 03:58:58;;;;;;;41.63;26.52;;;;;;;6.72;62.65;100599.09;5099626;28;20024;-23
2022/03/29 04:01:23;;;;;;;42.47;28.40;;;;;;;6.70;62.23;100598.19;5101733;28;20028;-23
2022/03/29 04:03:49;;;;;;;51.28;34.47;;;;;;;6.70;62.79;100594.72;5095682;28;20397;-22
2022/03/29 04:06:14;;;;;;;54.17;37.95;;;;;;;6.68;62.42;100597.31;5094882;28;20103;-22
2022/03/29 04:08:40;;;;;;;58.67;40.67;;;;;;;6.67;62.87;100592.97;5071896;28;20049;-22
2022/03/29 04:11:06;;;;;;;53.88;35.83;;;;;;;6.65;62.72;100598.19;5087486;28;20036;-22
2022/03/29 04:13:33;;;;;;;63.75;42.55;;;;;;;6.63;63.04;100592.03;5075346;28;20027;-22
2022/03/29 04:15:58;;;;;;;66.63;44.28;;;;;;;6.62;63.25;100592.03;5090680;28;20378;-22
2022/03/29 04:18:24;;;;;;;71.55;47.17;;;;;;;6.62;63.17;100589.41;5071095;28;20020;-23
2022/03/29 04:20:49;;;;;;;66.90;43.08;;;;;;;6.61;63.45;100580.69;5088903;28;20307;-22
2022/03/29 04:23:14;;;;;;;59.72;42.50;;;;;;;6.60;63.05;100578.91;5088650;28;20035;-22
2022/03/29 04:25:40;;;;;;;58.25;40.08;;;;;;;6.60;63.44;100584.16;5074355;28;20449;-22
2022/03/29 04:28:05;;;;;;;59.63;38.53;;;;;;;6.60;63.36;100578.06;5090357;28;20149;-23
2022/03/29 04:30:31;;;;;;;73.70;47.40;;;;;;;6.59;63.80;100578.91;5094202;28;20505;-22
2022/03/29 04:32:56;;;;;;;73.15;45.83;;;;;;;6.59;63.61;100576.28;5092713;28;20028;-22
2022/03/29 04:35:22;;;;;;;70.78;46.28;;;;;;;6.59;63.89;100581.53;5093426;28;20046;-22
2022/03/29 04:37:47;;;;;;;67.25;43.72;;;;;;;6.57;63.82;100578.91;5093810;28;20095;-23
2022/03/29 04:40:13;;;;;;;70.65;44.67;;;;;;;6.54;63.96;100574.53;5094759;28;20027;-22
2022/03/29 04:42:44;;;;;;;61.47;41.45;;;;;;;6.57;63.90;100578.03;5098218;28;20027;-23
2022/03/29 04:45:09;;;;;;;66.07;42.10;;;;;;;6.56;63.68;100573.66;5095101;28;20099;-22
2022/03/29 04:47:35;;;;;;;64.50;41.75;;;;;;;6.54;63.93;100571.91;5095499;28;20345;-22
2022/03/29 04:50:01;;;;;;;59.88;39.45;;;;;;;6.56;63.46;100573.66;5096578;28;20092;-22
2022/03/29 04:52:26;;;;;;;61.15;38.67;;;;;;;6.56;63.43;100571.06;5094133;28;20480;-22
2022/03/29 04:54:53;;;;;;;61.33;38.00;;;;;;;6.56;63.73;100571.06;5092937;28;20039;-22
2022/03/29 04:57:18;;;;;;;60.67;38.53;;;;;;;6.55;63.30;100572.78;5096444;28;20503;-22
2022/03/29 04:59:44;;;;;;;62.00;37.72;;;;;;;6.55;63.92;100572.78;5077377;28;20024;-22
2022/03/29 05:02:09;;;;;;;56.70;35.78;;;;;;;6.56;63.54;100576.28;5092717;28;20165;-22
2022/03/29 05:04:35;;;;;;;55.97;36.35;;;;;;;6.57;63.36;100575.41;5098073;28;20024;-22
2022/03/29 05:07:00;;;;;;;59.42;35.63;;;;;;;6.56;63.96;100573.66;5093819;28;20031;-22
2022/03/29 05:09:26;;;;;;;63.45;39.05;;;;;;;6.54;64.09;100581.53;5092510;28;20121;-22
2022/03/29 05:11:51;;;;;;;57.05;35.47;;;;;;;6.56;63.81;100582.38;5090465;28;20039;-22
2022/03/29 05:14:17;;;;;;;61.17;37.33;;;;;;;6.56;63.76;100581.53;5073889;28;20474;-22
2022/03/29 05:16:42;;;;;;;57.08;35.83;;;;;;;6.57;63.67;100591.13;5075232;28;20024;-22
2022/03/29 05:19:08;;;;;;;58.08;33.15;;;;;;;6.54;63.72;100584.13;5092444;28;20024;-23
2022/03/29 05:21:33;;;;;;;60.35;36.13;;;;;;;6.57;63.85;100591.13;5094934;28;20035;-22
2022/03/29 05:23:59;;;;;;;58.10;34.85;;;;;;;6.57;63.73;100583.28;5092267;28;20111;-22
2022/03/29 05:26:27;;;;;;;58.88;35.65;;;;;;;6.57;63.54;100586.75;5079462;28;20160;-21
2022/03/29 05:28:53;;;;;;;56.40;33.20;;;;;;;6.59;63.67;100586.78;5076460;28;20555;-22
2022/03/29 05:31:18;;;;;;;53.72;32.40;;;;;;;6.58;64.11;100593.78;5091775;28;20080;-22
2022/03/29 05:33:44;;;;;;;52.95;31.67;;;;;;;6.60;64.09;100591.16;5092381;28;20033;-22
2022/03/29 05:36:09;;;;;;;49.45;30.70;;;;;;;6.59;64.04;100589.38;5076978;28;20111;-22
2022/03/29 05:38:35;;;;;;;45.63;28.45;;;;;;;6.60;64.27;100596.41;5094548;28;20024;-22
2022/03/29 05:41:01;;;;;;;47.88;29.10;;;;;;;6.60;64.76;100593.78;5095481;28;20016;-22
2022/03/29 05:43:26;;;;;;;50.70;28.73;;;;;;;6.61;64.08;100590.28;5092285;28;20038;-22
2022/03/29 05:48:52;;;;;;;45.38;27.50;;;;;;;6.61;64.14;100600.78;5089570;28;20133;-22
2022/03/29 05:51:17;;;;;;;;;;;;;;;6.63;64.43;100596.41;5087935;28;20127;-21
2022/03/29 05:53:43;;;;;;;44.05;25.05;;;;;;;6.61;64.23;100601.66;5091807;28;20401;-22
2022/03/29 05:56:08;;;;;;;41.05;25.73;;;;;;;6.62;64.83;100597.28;5077112;28;20569;-22
2022/03/29 05:58:34;;;;;;;45.72;25.27;;;;;;;6.63;64.38;100596.41;5094573;28;20017;-22
2022/03/29 06:00:59;;;;;;;39.00;24.48;;;;;;;6.63;64.92;100594.66;5091694;28;20027;-22
2022/03/29 06:03:25;;;;;;;40.83;24.70;;;;;;;6.62;64.25;100592.91;5095652;28;20024;-23
2022/03/29 06:05:51;;;;;;;41.65;25.15;;;;;;;6.63;64.21;100594.66;5094398;28;20052;-22
2022/03/29 06:08:16;;;;;;;34.10;21.70;;;;;;;6.63;64.36;100599.91;5092481;28;20023;-22
2022/03/29 06:10:42;;;;;;;37.97;22.92;;;;;;;6.63;64.66;100593.78;5094564;28;20016;-22
2022/03/29 06:13:08;;;;;;;37.78;23.50;;;;;;;6.65;64.86;100597.31;5091818;28;20055;-22
2022/03/29 06:15:35;;;;;;;45.00;23.52;;;;;;;6.65;64.99;100594.69;5094251;28;20485;-22
2022/03/29 06:18:01;;;;;;;44.00;23.10;;;;;;;6.64;64.32;100596.41;5089977;28;20081;-21
2022/03/29 06:20:26;;;;;;;38.65;23.55;;;;;;;6.66;65.06;100588.56;5094247;28;20597;-22
2022/03/29 06:22:52;;;;;;;40.28;23.33;;;;;;;6.65;65.17;100586.81;5095128;28;20035;-22
2022/03/29 06:25:17;;;;;;;39.45;24.40;;;;;;;6.65;65.25;100587.72;5092296;28;20019;-22
2022/03/29 06:27:42;;;;;;;42.63;23.50;;;;;;;6.66;65.01;100585.94;5089518;28;20024;-23
2022/03/29 06:30:09;;;;;;;43.47;23.33;;;;;;;6.67;64.21;100587.72;5056343;28;20385;-22
2022/03/29 06:32:44;;;;;;;36.80;21.50;;;;;;;6.66;64.75;100589.44;5092108;28;20462;-22
2022/03/29 06:35:09;;;;;;;36.75;22.45;;;;;;;6.68;64.06;100586.84;5089515;28;20038;-22
2022/03/29 06:37:35;;;;;;;37.97;23.02;;;;;;;6.68;64.38;100587.69;5071889;28;20032;-22
2022/03/29 06:40:00;;;;;;;37.65;22.13;;;;;;;6.70;64.63;100590.31;5088155;28;20061;-22
2022/03/29 06:42:26;;;;;;;38.33;22.50;;;;;;;6.71;64.78;100575.50;5088049;28;20860;-23
2022/03/29 06:44:51;;;;;;;38.28;21.80;;;;;;;6.71;64.42;100576.38;5090938;28;20062;-22
2022/03/29 06:47:17;;;;;;;35.55;21.80;;;;;;;6.73;64.87;100574.63;5092141;28;20024;-22
2022/03/29 06:49:42;;;;;;;36.40;21.70;;;;;;;6.73;64.59;100577.25;5075529;28;20058;-22
2022/03/29 06:52:08;;;;;;;34.20;20.83;;;;;;;6.73;65.07;100574.63;5087100;28;20504;-22
2022/03/29 06:54:33;;;;;;;35.90;21.55;;;;;;;6.73;65.20;100572.00;5089967;28;20485;-23
2022/03/29 06:56:59;;;;;;;35.97;20.75;;;;;;;6.76;64.33;100569.41;5088717;28;20035;-22
2022/03/29 06:59:24;;;;;;;41.83;25.25;;;;;;;6.82;64.75;100578.16;5089942;28;20091;-23
2022/03/29 07:01:50;;;;;;;60.22;38.55;;;;;;;6.81;64.24;100577.31;5071590;28;20055;-22
2022/03/29 07:04:15;;;;;;;69.18;40.60;;;;;;;6.80;64.67;100576.41;5091850;28;20020;-22
2022/03/29 07:06:41;;;;;;;99.30;53.40;;;;;;;6.82;65.46;100570.28;5069533;28;20077;-22
2022/03/29 07:11:51;;;;;;;101.55;65.18;;;;;;;6.87;65.56;100568.59;5088641;28;20568;-22
2022/03/29 07:14:16;;;;;;;88.90;58.88;;;;;;;6.89;66.63;100564.22;5091366;28;20028;-22
2022/03/29 07:16:43;;;;;;;87.85;55.50;;;;;;;6.90;66.33;100555.47;5088258;28;20079;-23
2022/03/29 07:19:09;;;;;;;79.13;51.72;;;;;;;6.92;65.93;100570.34;5090232;28;20016;-22
2022/03/29 07:21:37;;;;;;;76.57;50.50;;;;;;;6.93;66.21;100571.22;5086666;28;20031;-22
2022/03/29 07:24:03;;;;;;;58.67;38.63;;;;;;;6.96;66.88;100562.47;5070557;28;20020;-23
2022/03/29 07:26:30;;;;;;;58.60;39.40;;;;;;;6.98;66.09;100564.25;5089131;28;20481;-22
2022/03/29 07:28:56;;;;;;;60.25;38.33;;;;;;;7.01;66.31;100569.50;5090794;28;20081;-22
2022/03/29 07:31:22;;;;;;;57.95;37.22;;;;;;;7.01;66.44;100561.63;5087845;28;20028;-22
2022/03/29 07:33:48;;;;;;;50.25;35.75;;;;;;;7.03;66.67;100565.16;5072820;28;20485;-22
2022/03/29 07:36:13;;;;;;;52.67;35.03;;;;;;;7.04;66.54;100566.88;5089467;28;20036;-22
2022/03/29 07:38:39;;;;;;;51.20;34.50;;;;;;;7.06;66.49;100567.78;5089517;28;20523;-22
2022/03/29 07:41:04;;;;;;;51.60;34.65;;;;;;;7.09;66.39;100566.03;5089976;28;20031;-22
2022/03/29 07:43:31;;;;;;;50.05;30.48;;;;;;;7.12;66.62;100561.69;5088034;28;20393;-22
2022/03/29 07:45:57;;;;;;;50.05;31.85;;;;;;;7.14;66.70;100564.31;5087304;28;20024;-22
2022/03/29 07:48:22;;;;;;;46.78;29.27;;;;;;;7.15;66.44;100560.81;5089185;28;20489;-22
2022/03/29 07:50:48;;;;;;;45.80;29.35;;;;;;;7.19;66.14;100567.81;5089301;28;20059;-22
2022/03/29 07:53:14;;;;;;;47.05;27.50;;;;;;;7.20;66.33;100574.81;5088818;28;20134;-22
2022/03/29 07:55:40;;;;;;;47.85;28.35;;;;;;;7.22;66.90;100565.22;5069245;28;20466;-22
2022/03/29 07:58:06;;;;;;;47.65;27.88;;;;;;;7.24;67.05;100567.84;5089779;28;20049;-22
2022/03/29 08:00:31;;;;;;;44.47;28.00;;;;;;;7.27;67.17;100568.72;5070106;28;20024;-22
2022/03/29 08:02:58;;;;;;;47.50;28.52;;;;;;;7.27;66.93;100566.09;5068882;28;20016;-22
2022/03/29 08:05:24;;;;;;;52.20;28.85;;;;;;;7.30;67.20;100566.09;5053826;28;20042;-22
2022/03/29 08:07:50;;;;;;;49.22;26.77;;;;;;;7.34;66.54;100561.75;5085724;28;20048;-22
2022/03/29 08:10:16;;;;;;;54.72;27.27;;;;;;;7.35;66.85;100560.88;5086774;28;20028;-23
2022/03/29 08:12:42;;;;;;;49.33;27.75;;;;;;;7.36;66.35;100554.75;5089517;28;20042;-22
2022/03/29 08:15:10;;;;;;;45.28;25.95;;;;;;;7.38;66.66;100550.41;5091908;28;20264;-22
2022/03/29 08:17:36;;;;;;;49.22;26.65;;;;;;;7.40;66.49;100556.50;5071031;28;20525;-21
2022/03/29 08:20:04;;;;;;;46.45;24.77;;;;;;;7.45;66.25;100561.78;5089658;28;20031;-22
2022/03/29 08:22:30;;;;;;;43.22;24.67;;;;;;;7.44;66.69;100558.25;5092276;28;20051;-23
2022/03/29 08:24:55;;;;;;;52.60;25.25;;;;;;;7.47;66.60;100552.13;5091154;28;20109;-22
2022/03/29 08:27:21;;;;;;;46.58;25.48;;;;;;;7.54;65.58;100558.28;5089407;28;20441;-22
2022/03/29 08:29:47;;;;;;;44.58;24.35;;;;;;;7.52;65.76;100547.78;5070560;28;20028;-22
2022/03/29 08:32:13;;;;;;;41.45;25.10;;;;;;;7.55;65.77;100539.94;5086500;28;20066;-22
2022/03/29 08:34:39;;;;;;;37.35;24.42;;;;;;;7.57;65.69;100555.69;5069596;28;20388;-23
2022/03/29 08:37:05;;;;;;;45.80;26.63;;;;;;;7.59;66.08;100551.28;5085881;28;20103;-22
2022/03/29 08:39:30;;;;;;;48.50;26.40;;;;;;;7.59;66.46;100543.41;5088664;28;20106;-22
2022/03/29 08:41:59;;;;;;;42.22;24.10;;;;;;;7.58;66.65;100545.16;5092181;28;20047;-22
2022/03/29 08:44:26;;;;;;;41.35;22.95;;;;;;;7.67;65.06;100548.69;5069100;28;20020;-22
2022/03/29 08:46:52;;;;;;;42.90;24.83;;;;;;;7.67;66.26;100549.53;5087767;28;20055;-22
2022/03/29 08:49:19;;;;;;;42.78;23.10;;;;;;;7.70;65.40;100553.91;5069913;28;20028;-22
2022/03/29 08:51:45;;;;;;;39.42;22.80;;;;;;;7.72;65.91;100546.94;5092364;28;20032;-22
2022/03/29 08:54:10;;;;;;;38.45;21.98;;;;;;;7.77;65.69;100550.44;5088774;28;20057;-22
2022/03/29 08:56:36;;;;;;;41.63;22.48;;;;;;;7.82;65.39;100543.44;5088911;28;20072;-22
2022/03/29 08:59:01;;;;;;;38.80;22.75;;;;;;;7.87;65.64;100539.94;5089693;28;20497;-22
2022/03/29 09:01:27;;;;;;;35.55;21.73;;;;;;;7.94;65.20;100537.31;5088814;28;20028;-22
2022/03/29 09:04:10;;;;;;;35.30;21.27;;;;;;;7.99;65.20;100529.44;5088672;28;20036;-22
2022/03/29 09:06:50;;;;;;;33.67;22.10;;;;;;;8.07;65.11;100526.81;5089980;28;20023;-21
2022/03/29 09:09:28;;;;;;;36.75;21.80;;;;;;;8.13;65.07;100532.03;5071065;28;20472;-22
2022/03/29 09:11:59;;;;;;;36.83;21.67;;;;;;;8.20;64.78;100527.63;5072176;28;20124;-22
2022/03/29 09:14:28;;;;;;;37.80;20.88;;;;;;;8.28;64.67;100525.00;5073899;28;20016;-22
2022/03/29 09:16:54;;;;;;;35.13;21.35;;;;;;;8.36;64.29;100522.38;5089716;28;20029;-22
2022/03/29 09:19:23;;;;;;;33.75;20.02;;;;;;;8.41;64.32;100525.88;5090869;28;20023;-22
2022/03/29 09:21:49;;;;;;;33.42;19.77;;;;;;;8.49;64.30;100524.09;5091446;28;20038;-22
2022/03/29 09:24:17;;;;;;;30.75;19.58;;;;;;;8.58;64.15;100518.81;5093519;28;20110;-21
2022/03/29 09:26:48;;;;;;;35.85;21.42;;;;;;;8.63;64.26;100524.06;5090843;28;20023;-22
2022/03/29 09:29:21;;;;;;;32.92;19.77;;;;;;;8.74;63.76;100524.03;5094041;28;20352;-22
2022/03/29 09:32:00;;;;;;;35.08;20.98;;;;;;;8.81;63.78;100524.88;5075556;28;20060;-22
2022/03/29 09:34:28;;;;;;;34.85;21.48;;;;;;;8.88;63.55;100521.34;5093482;28;20109;-22
2022/03/29 09:36:53;;;;;;;35.00;20.27;;;;;;;8.98;63.27;100522.19;5074482;28;20397;-22
2022/03/29 09:39:39;;;;;;;33.30;20.90;;;;;;;9.05;63.27;100521.28;5084838;28;20065;-22
2022/03/29 09:42:17;;;;;;;30.75;18.95;;;;;;;9.13;63.16;100515.09;5091143;28;20050;-22
2022/03/29 09:44:51;;;;;;;30.95;18.92;;;;;;;9.20;62.85;100511.53;5090168;28;20051;-23
2022/03/29 09:47:20;;;;;;;32.47;20.70;;;;;;;9.25;62.66;100504.50;5089397;28;20024;-22
2022/03/29 09:49:54;;;;;;;33.00;20.38;;;;;;;9.31;62.35;100493.91;5087635;28;20025;-21
2022/03/29 09:52:25;;;;;;;35.95;20.98;;;;;;;9.41;62.02;100507.03;5090588;28;20104;-22
2022/03/29 09:55:15;;;;;;;32.70;20.05;;;;;;;9.47;61.65;100501.72;5092577;28;20059;-22
2022/03/29 09:57:54;;;;;;;36.60;22.48;;;;;;;9.51;61.53;100503.44;5096312;28;20054;-22
2022/03/29 10:00:43;;;;;;;34.85;21.60;;;;;;;9.57;61.38;100495.47;5095828;28;20019;-22
2022/03/29 10:03:10;;;;;;;34.05;22.25;;;;;;;9.62;61.35;100498.97;5089926;28;20024;-22
2022/03/29 10:05:37;;;;;;;34.92;21.08;;;;;;;9.69;61.29;100485.72;5090346;28;20042;-22
2022/03/29 10:10:55;;;;;;;38.05;22.65;;;;;;;9.81;61.05;100492.66;5074806;28;20035;-22
2022/03/29 10:13:23;;;;;;;36.25;22.27;;;;;;;9.88;60.87;100489.94;5072040;28;20028;-22
2022/03/29 10:15:50;;;;;;;41.63;23.42;;;;;;;9.95;60.76;100482.88;5070849;28;20054;-22
2022/03/29 10:18:16;;;;;;;34.17;22.70;;;;;;;10.03;60.67;100484.56;5091511;28;20020;-22
2022/03/29 10:20:42;;;;;;;35.50;22.27;;;;;;;10.08;60.67;100478.38;5073817;28;20034;-21
2022/03/29 10:23:07;;;;;;;41.38;23.40;;;;;;;10.17;60.58;100479.16;5090730;28;20016;-22
2022/03/29 10:25:33;;;;;;;34.88;21.75;;;;;;;10.20;60.68;100489.66;5090261;28;20077;-22
2022/03/29 10:28:00;;;;;;;34.90;21.92;;;;;;;10.29;60.34;100476.38;5070239;28;20474;-22
2022/03/29 10:30:37;;;;;;;31.80;20.48;;;;;;;10.37;60.50;100471.88;5072727;28;20083;-22
2022/03/29 10:33:26;;;;;;;38.05;23.33;;;;;;;10.47;60.07;100466.56;5089577;28;20016;-22
2022/03/29 10:36:01;;;;;;;38.35;22.45;;;;;;;10.54;59.98;100476.13;5091245;28;20039;-22
2022/03/29 10:38:47;;;;;;;35.40;23.20;;;;;;;10.59;59.99;100461.13;5091745;28;20117;-22
2022/03/29 10:41:28;;;;;;;36.03;21.98;;;;;;;10.69;59.56;100464.50;5074420;28;20035;-21
2022/03/29 10:44:04;;;;;;;40.65;23.77;;;;;;;10.76;59.35;100462.66;5092141;28;20023;-21
2022/03/29 10:46:50;;;;;;;34.30;22.02;;;;;;;10.85;59.24;100466.94;5090176;28;20031;-22
2022/03/29 10:49:24;;;;;;;35.78;22.15;;;;;;;10.92;59.38;100452.78;5090445;28;20020;-22
2022/03/29 10:51:52;;;;;;;33.47;22.58;;;;;;;11.00;59.43;100450.91;5089335;28;20032;-21
2022/03/29 10:54:33;;;;;;;36.05;24.50;;;;;;;11.07;59.03;100446.38;5085556;28;20475;-22
2022/03/29 10:57:24;;;;;;;32.63;21.25;;;;;;;11.13;59.04;100441.03;5091254;28;20036;-22
2022/03/29 10:59:58;;;;;;;39.17;24.42;;;;;;;11.24;58.95;100445.28;5087613;28;20028;-22
2022/03/29 11:02:25;;;;;;;39.75;22.95;;;;;;;11.32;59.20;100440.75;5089300;28;20016;-22
2022/03/29 11:05:10;;;;;;;39.80;22.90;;;;;;;11.42;58.79;100429.16;5074911;28;20024;-22
2022/03/29 11:07:59;;;;;;;39.13;23.42;;;;;;;11.53;58.99;100434.25;5072237;28;20024;-22
2022/03/29 11:10:42;;;;;;;37.15;23.75;;;;;;;11.60;58.62;100435.00;5088993;28;20085;-23
2022/03/29 11:13:34;;;;;;;40.08;25.40;;;;;;;11.68;58.36;100432.25;5089331;28;20031;-22
2022/03/29 11:16:02;;;;;;;44.05;26.58;;;;;;;11.78;58.28;100425.03;5090954;28;20028;-22
2022/03/29 11:18:30;;;;;;;43.03;27.63;;;;;;;11.87;57.92;100422.19;5070845;28;20073;-22
2022/03/29 11:21:02;;;;;;;42.22;26.98;;;;;;;11.96;57.74;100415.88;5089663;28;20028;-22
2022/03/29 11:23:35;;;;;;;49.70;28.80;;;;;;;12.02;57.43;100407.84;5090885;28;20027;-22
2022/03/29 11:26:14;;;;;;;41.38;26.77;;;;;;;12.11;57.23;100412.13;5087369;28;20486;-23
2022/03/29 11:28:54;;;;;;;40.22;25.98;;;;;;;12.22;57.29;100403.06;5089180;28;20015;-21
2022/03/29 11:31:20;;;;;;;44.58;29.17;;;;;;;12.30;57.74;100401.13;5090371;28;20027;-21